File downld02.txt from Chesterfield

                  Temp     Hi    Low   Out    Dew  Wind  Wind  Wind    Hi    Hi   Wind   Heat    THW                Rain    Heat    Cool    In     In    In     In   Wind  Wind    ISS   Arc.
  Date    Time     Out   Temp   Temp   Hum    Pt. Speed   Dir   Run Speed   Dir  Chill  Index  Index   Bar    Rain  Rate    D-D     D-D    Temp   Hum    Dew   Heat  Samp   Tx   Recept  Int.
-----------------------------------------------------------------------------------------------------------------------------------------------------------------------------------------------
 5/05/26 12:30a   55.1   55.8   55.1    50   36.8   6.0    SE  3.00  14.0    SE   53.7   53.3   51.9  29.834  0.00  0.00   0.206   0.000   67.9    44   45.2   66.0   676    2    100.0   30 
 5/05/26  1:00a   54.4   55.1   54.4    52   37.1   5.0    SE  2.50  15.0   ESE   53.4   52.8   51.8  29.835  0.00  0.00   0.221   0.000   67.8    45   45.7   66.0   676    2    100.0   30 
 5/05/26  1:30a   53.4   54.4   53.3    54   37.2   2.0    SE  1.00  11.0   ESE   53.4   52.0   52.0  29.829  0.00  0.00   0.242   0.000   67.8    46   46.3   66.1   682    2    100.0   30 
 5/05/26  2:00a   53.3   53.5   53.3    54   37.1   2.0   ESE  1.00   7.0   ESE   53.3   51.9   51.9  29.828  0.00  0.00   0.244   0.000   67.6    47   46.6   66.0   685    2    100.0   30 
 5/05/26  2:30a   53.3   53.3   53.2    55   37.5   3.0    SE  1.50  10.0   SSE   53.3   51.9   51.9  29.821  0.00  0.00   0.244   0.000   67.4    47   46.5   65.7   676    2    100.0   30 
 5/05/26  3:00a   53.1   53.3   53.1    55   37.3   3.0    SE  1.50  10.0   SSE   53.1   51.7   51.7  29.817  0.00  0.00   0.248   0.000   67.3    48   46.9   65.7   678    2    100.0   30 
 5/05/26  3:30a   52.5   53.1   52.5    57   37.7   2.0    SE  1.00   8.0   ESE   52.5   51.3   51.3  29.816  0.00  0.00   0.260   0.000   67.2    48   46.8   65.6   679    2    100.0   30 
 5/05/26  4:00a   52.3   52.5   52.2    57   37.5   2.0    SE  1.00   8.0    SE   52.3   51.1   51.1  29.813  0.00  0.00   0.265   0.000   67.0    49   47.2   65.5   679    2    100.0   30 
 5/05/26  4:30a   51.7   52.3   51.7    59   37.8   2.0    SE  1.00   7.0   ESE   51.7   50.7   50.7  29.818  0.00  0.00   0.277   0.000   66.9    49   47.1   65.4   678    2    100.0   30 
 5/05/26  5:00a   50.8   51.7   50.8    61   37.8   1.0   ESE  0.50   8.0   ESE   50.8   50.0   50.0  29.813  0.00  0.00   0.296   0.000   66.7    49   46.9   65.1   673    2    100.0   30 
 5/05/26  5:30a   50.9   51.0   50.6    61   37.9   2.0    SE  1.00   8.0    SE   50.9   50.0   50.0  29.811  0.00  0.00   0.294   0.000   66.6    49   46.8   65.0   676    2    100.0   30 
 5/05/26  6:00a   50.5   51.0   50.5    62   38.0   1.0    SE  0.50   6.0    SE   50.5   49.7   49.7  29.809  0.00  0.00   0.302   0.000   66.6    48   46.3   64.9   679    2    100.0   30 
 5/05/26  6:30a   50.1   50.6   50.0    63   38.0   1.0   ESE  0.50   4.0   SSW   50.1   49.4   49.4  29.821  0.00  0.00   0.310   0.000   67.8    49   47.9   66.4   676    2    100.0   30 
 5/05/26  7:00a   51.2   51.2   50.0    63   39.0   2.0    SE  1.00   7.0    SE   51.2   50.4   50.4  29.821  0.00  0.00   0.287   0.000   69.2    50   49.8   67.7   678    2    100.0   30 
 5/05/26  7:30a   53.3   53.3   51.1    61   40.2   2.0    SE  1.00   7.0   SSE   53.3   52.2   52.2  29.830  0.00  0.00   0.244   0.000   70.3    51   51.3   68.8   678    2    100.0   30 
 5/05/26  8:00a   53.8   53.9   53.2    60   40.2   3.0    SE  1.50  10.0    SE   53.8   52.6   52.6  29.828  0.00  0.00   0.233   0.000   70.9    50   51.3   69.5   678    2    100.0   30 
 5/05/26  8:30a   56.5   56.5   53.7    57   41.4   3.0    SE  1.50  10.0     E   56.5   55.0   55.0  29.824  0.00  0.00   0.177   0.000   71.2    49   51.1   69.8   678    2    100.0   30 
 5/05/26  9:00a   59.4   59.4   56.4    53   42.3   3.0     S  1.50   9.0     E   59.4   57.6   57.6  29.826  0.00  0.00   0.117   0.000   71.1    48   50.4   69.6   677    2    100.0   30 
 5/05/26  9:30a   61.9   61.9   59.4    51   43.6   3.0   SSE  1.50  12.0    SE   61.9   60.1   60.1  29.819  0.00  0.00   0.065   0.000   71.0    48   50.3   69.4   682    2    100.0   30 
 5/05/26 10:00a   64.2   64.2   61.9    48   44.1   3.0   ESE  1.50   9.0   ESE   64.2   62.3   62.3  29.817  0.00  0.00   0.017   0.000   71.2    48   50.5   69.7   682    2    100.0   30 
 5/05/26 10:30a   66.4   66.4   64.2    45   44.4   4.0   ESE  2.00  11.0   ESE   66.4   64.4   64.4  29.807  0.00  0.00   0.000   0.029   71.3    47   50.0   69.8   676    2    100.0   30 
 5/05/26 11:00a   71.2   71.2   66.4    40   45.6   4.0    SE  2.00  13.0    SE   71.2   68.9   68.9  29.801  0.00  0.00   0.000   0.129   71.5    47   50.2   70.0   677    2    100.0   30 
 5/05/26 11:30a   73.0   73.0   71.2    40   47.2   6.0   ESE  3.00  14.0     E   73.0   71.7   71.7  29.783  0.00  0.00   0.000   0.167   71.5    47   50.2   70.0   684    2    100.0   30 
 5/05/26 12:00p   75.4   75.4   73.0    35   45.8   6.0    SE  3.00  15.0    SE   75.4   74.2   74.2  29.767  0.00  0.00   0.000   0.217   71.6    47   50.3   70.2   679    2    100.0   30 
 5/05/26 12:30p   77.1   77.1   75.4    35   47.3   6.0    SE  3.00  16.0    SE   77.1   76.1   76.1  29.747  0.00  0.00   0.000   0.252   71.6    46   49.7   70.1   678    2    100.0   30 
 5/05/26  1:00p   78.2   78.6   77.1    31   45.1   7.0    SE  3.50  19.0   ESE   78.2   76.6   76.6  29.733  0.00  0.00   0.000   0.275   71.7    46   49.8   70.2   684    2    100.0   30 
 5/05/26  1:30p   79.5   79.5   78.1    31   46.2   6.0   SSE  3.00  18.0   SSE   79.5   77.7   77.7  29.723  0.00  0.00   0.000   0.302   71.7    46   49.8   70.2   681    2    100.0   30 
 5/05/26  2:00p   79.7   80.5   79.5    29   44.6   6.0   SSE  3.00  19.0   ESE   79.7   77.7   77.7  29.716  0.00  0.00   0.000   0.306   71.8    46   49.9   70.4   677    2    100.0   30 
 5/05/26  2:30p   79.8   80.0   79.6    29   44.7   5.0     S  2.50  19.0   SSE   79.8   77.7   77.7  29.693  0.00  0.00   0.000   0.308   71.8    46   49.9   70.4   682    2    100.0   30 
 5/05/26  3:00p   79.6   80.2   79.4    30   45.4   6.0    SE  3.00  20.0    SE   79.6   77.7   77.7  29.680  0.00  0.00   0.000   0.304   71.8    46   49.9   70.4   679    2    100.0   30 
 5/05/26  3:30p   81.6   82.0   79.6    22   39.1   5.0     W  2.50  24.0    SW   81.6   78.7   78.7  29.679  0.00  0.00   0.000   0.346   71.9    46   50.0   70.6   677    2    100.0   30 
 5/05/26  4:00p   80.1   81.7   80.0    23   38.9   6.0     S  3.00  26.0    SE   80.1   77.4   77.4  29.677  0.00  0.00   0.000   0.315   71.8    46   49.9   70.4   683    2    100.0   30 
 5/05/26  4:30p   81.5   81.5   80.1    20   36.5   6.0    SE  3.00  28.0     S   81.5   78.4   78.4  29.667  0.00  0.00   0.000   0.344   71.8    46   49.9   70.4   680    2    100.0   30 
 5/05/26  5:00p   81.9   81.9   81.3    20   36.9   7.0   SSW  3.50  24.0   WSW   81.9   78.8   78.8  29.665  0.00  0.00   0.000   0.352   71.8    46   49.9   70.4   677    2    100.0   30 
 5/05/26  5:30p   82.2   82.5   81.9    21   38.4   6.0     S  3.00  20.0   SSE   82.2   79.2   79.2  29.676  0.00  0.00   0.000   0.358   71.8    46   49.9   70.4   677    2    100.0   30 
 5/05/26  6:00p   79.5   82.2   79.5    27   42.6   5.0     S  2.50  23.0   SSW   79.5   77.3   77.3  29.681  0.00  0.00   0.000   0.302   71.7    45   49.2   70.1   680    2    100.0   30 
 5/05/26  6:30p   75.6   79.5   75.6    36   46.8   4.0   SSE  2.00  17.0   SSE   75.6   74.5   74.5  29.701  0.00  0.00   0.000   0.221   71.5    45   49.0   69.8   677    2    100.0   30 
 5/05/26  7:00p   73.7   75.6   73.7    37   45.8   4.0   WNW  2.00  18.0     S   73.7   72.4   72.4  29.742  0.00  0.00   0.000   0.181   71.3    45   48.9   69.6   685    2    100.0   30 
 5/05/26  7:30p   70.3   73.7   70.3    44   47.3   4.0    NW  2.00  14.0    NW   70.3   68.1   68.1  29.764  0.00  0.00   0.000   0.110   71.1    46   49.3   69.3   682    2    100.0   30 
 5/05/26  8:00p   69.1   70.3   69.1    46   47.4   1.0    SE  0.50   6.0    SW   69.1   67.3   67.3  29.780  0.00  0.00   0.000   0.085   71.0    46   49.2   69.2   678    2    100.0   30 
 5/05/26  8:30p   68.0   69.1   68.0    48   47.6   1.0     E  0.50   5.0   ESE   68.0   66.5   66.5  29.786  0.00  0.00   0.000   0.063   70.8    46   49.0   68.9   681    2    100.0   30 
 5/05/26  9:00p   67.3   68.0   67.1    50   48.0   2.0     E  1.00   6.0    SE   67.3   65.9   65.9  29.789  0.00  0.00   0.000   0.048   70.7    47   49.5   68.9   679    2    100.0   30 
 5/05/26  9:30p   66.9   67.3   66.9    51   48.2   2.0     E  1.00   9.0    SE   66.9   65.6   65.6  29.799  0.00  0.00   0.000   0.040   70.6    47   49.4   68.8   675    2    100.0   30 
 5/05/26 10:00p   66.5   66.9   66.4    52   48.3   3.0   ESE  1.50   9.0     E   66.5   65.2   65.2  29.819  0.00  0.00   0.000   0.031   70.5    47   49.3   68.6   677    2    100.0   30 
 5/05/26 10:30p   65.1   66.5   65.1    54   48.0   3.0   ESE  1.50  10.0   ESE   65.1   63.8   63.8  29.805  0.00  0.00   0.000   0.002   70.4    47   49.2   68.5   677    2    100.0   30 
 5/05/26 11:00p   64.8   65.1   64.8    52   46.8   2.0    SE  1.00  10.0   SSW   64.8   63.3   63.3  29.809  0.00  0.00   0.004   0.000   70.3    47   49.1   68.4   677    2    100.0   30 
 5/05/26 11:30p   64.1   64.8   64.1    53   46.6   2.0    SE  1.00   8.0   SSE   64.1   62.6   62.6  29.810  0.00  0.00   0.019   0.000   70.2    47   49.0   68.3   681    2    100.0   30 
 5/06/26 12:00a   63.0   64.1   63.0    54   46.1   3.0    SE  1.50   9.0     E   63.0   61.5   61.5  29.813  0.00  0.00   0.042   0.000   70.1    47   48.9   68.1   678    2    100.0   30 
 5/06/26 12:30a   62.2   63.1   62.2    54   45.3   3.0    SE  1.50  10.0     E   62.2   60.6   60.6  29.813  0.00  0.00   0.058   0.000   69.9    47   48.7   67.9   681    2    100.0   30 
 5/06/26  1:00a   61.1   62.2   61.1    55   44.8   3.0    SE  1.50   9.0   ESE   61.1   59.5   59.5  29.810  0.00  0.00   0.081   0.000   69.8    47   48.7   67.9   683    2    100.0   30 
 5/06/26  1:30a   60.4   61.1   60.4    56   44.6   3.0   ESE  1.50   9.0   ESE   60.4   58.9   58.9  29.806  0.00  0.00   0.096   0.000   69.7    47   48.6   67.8   680    2    100.0   30 
 5/06/26  2:00a   59.8   60.5   59.8    58   45.0   2.0    SE  1.00   8.0    SE   59.8   58.4   58.4  29.809  0.00  0.00   0.108   0.000   69.6    47   48.5   67.7   678    2    100.0   30 
 5/06/26  2:30a   59.3   59.8   59.3    59   45.0   2.0   ESE  1.00   8.0   SSW   59.3   57.9   57.9  29.804  0.00  0.00   0.119   0.000   69.6    47   48.5   67.7   678    2    100.0   30 
 5/06/26  3:00a   58.4   59.3   58.4    61   45.0   2.0   ESE  1.00   6.0   ENE   58.4   57.2   57.2  29.809  0.00  0.00   0.137   0.000   69.4    47   48.3   67.6   681    2    100.0   30 
 5/06/26  3:30a   57.9   58.5   57.9    62   45.0   1.0   ESE  0.50   5.0   ESE   57.9   56.7   56.7  29.810  0.00  0.00   0.148   0.000   69.3    47   48.2   67.5   681    2    100.0   30 
 5/06/26  4:00a   57.4   57.9   57.4    63   44.9   2.0     E  1.00   5.0   SSE   57.4   56.3   56.3  29.803  0.00  0.00   0.158   0.000   69.2    47   48.1   67.4   679    2    100.0   30 
 5/06/26  4:30a   56.8   57.5   56.7    65   45.2   3.0     E  1.50   6.0    SE   56.8   55.8   55.8  29.800  0.00  0.00   0.171   0.000   69.1    47   48.0   67.4   684    2    100.0   30 
 5/06/26  5:00a   57.0   57.1   56.8    65   45.3   2.0   ESE  1.00   8.0   SSE   57.0   56.0   56.0  29.797  0.00  0.00   0.167   0.000   69.0    47   47.9   67.3   677    2    100.0   30 
 5/06/26  5:30a   56.6   57.1   56.6    67   45.8   2.0   ESE  1.00   9.0    SE   56.6   55.7   55.7  29.790  0.00  0.00   0.175   0.000   68.8    47   47.7   67.1   679    2    100.0   30 
 5/06/26  6:00a   56.5   56.7   56.4    68   46.1   2.0    SE  1.00   8.0    SE   56.5   55.6   55.6  29.797  0.00  0.00   0.177   0.000   68.8    47   47.7   67.1   682    2    100.0   30 
 5/06/26  6:30a   56.8   56.9   56.5    68   46.3   3.0    SE  1.50   9.0    SE   56.8   55.9   55.9  29.797  0.00  0.00   0.171   0.000   68.9    47   47.8   67.2   680    2    100.0   30 
 5/06/26  7:00a   56.9   56.9   56.8    68   46.4   3.0    SE  1.50  13.0   ESE   56.9   56.0   56.0  29.799  0.00  0.00   0.169   0.000   69.0    47   47.9   67.3   680    2    100.0   30 
 5/06/26  7:30a   57.3   57.3   56.8    68   46.8   3.0    SE  1.50  10.0   ESE   57.3   56.4   56.4  29.798  0.00  0.00   0.160   0.000   69.2    47   48.1   67.4   677    2    100.0   30 
 5/06/26  8:00a   57.9   57.9   57.2    68   47.4   3.0    SE  1.50  10.0   ESE   57.9   57.0   57.0  29.789  0.00  0.00   0.148   0.000   69.4    47   48.3   67.6   678    2    100.0   30